Airfield :
LOGIN :

Register | Disclaimer

   EN    FR    IT 

 










Legend :    VFR   Marginal VFR   IFR   Intensive IFR   Very Intensive IFR
Visi :
Ceiling :
>= 8 km
>= 3000ft
5 to 8 km
1000 to 3000 ft
1500m to 5 km
500 to 1000 ft
800 to 1500m
200 to 500 ft
< 800m
< 200 ft
Symbols :   Thunderstorms  Fog  Heavy snow  Heavy precipitations  Wind > 20 kt
SIGMETs :     Misc.  Thunderstorms  Icing  Turbulence  Mountain Waves  Volcanic Ashes







- Airport Elevation : 463 ft
- IATA code : SZY
- AIRPORT CLOSED.


EPSY - Szczytno

CURRENT METAR :
  • 180730Z 33009KT 280V360 8000 -SHRA FEW003 SCT007 BKN019CB 08/07 Q1008

EXPIRED METARs :
  • 180700Z 30011G21KT 260V330 9000 -SHRA FEW002 SCT007 BKN018CB 08/07 Q1007 RESHRA
  • 180630Z 28008KT 230V320 8000 -SHRA SCT006 BKN020CB 08/07 Q1006
  • 180600Z 29011G24KT 230V020 8000 -SHRA BKN016TCU 08/07 Q1006

TAF TAF EPSY
Valid from the 18 at 06:00 until the 18 at 15:00 UTC


180600Z 1806/1815 29010KT 9999 BKN030
TEMPO 1806/1814 29015G25KT -SHRA BKN016TCU
PROB30
TEMPO 1806/1813 VRB20G32KT 4000 SHRA BKN007 BKN012CB
No reported NOTAMs for that airfield.



MET'MAP, your aeronautical weather chart ! - Copyright ORBIFLY December 2007 - Disclaimer

ORBIFLY MET'MAP TEAM :

Programming & Development : Alexandra Zaïnal
Concept & Development : Baudouin d'Aumeries
Co-Development & Prog : Marc-Olivier Méhu
Technical & hardware support : Manuel Goepfert

Contact : metmap@orbifly.com




SOURCES & CREDITS :

   NOAA